Latest Coastal Weather Observations for Ballina

IDN60701

Issued at 8:01 pm EST Sunday 23 April 2017 (issued every 10 minutes, with the page automatically refreshed every 10 minutes)

About coastal observations | Map of coastal stations | Coastal observations for NSW | Marine services | Other Formats
Station Details ID: 058198 Name: BALLINA AIRPORT AWS Lat: -28.84 Lon: 153.56 Height: 1.3 m
Data from the previous 72 hours. | See also: Recent months at Ballina
Date/Time
EST
Temp
°C
Wind Pressure Rain since
9am
mm
Weather Cloud Vis
km
Sea
Height
m
Swell
Dir  Spd
kts
Gust
kts
hPa Trend Height
m
Period
s
Dir
23/08:00pm 16.6 CALM 0 0 1022.9 - 0.0 - - 10 - - - -
23/07:30pm 16.9 WSW 1 6 1022.6 - 0.0 - - 10 - - - -
23/07:00pm 17.1 CALM 0 0 1022.4 - 0.0 - - 10 - - - -
23/06:30pm 17.7 CALM 0 0 1022.2 - 0.0 - - 10 - - - -
23/06:00pm 18.2 CALM 0 0 1022.0 - 0.0 - - 10 - - - -
23/05:30pm 20.1 ESE 1 3 1021.7 - 0.0 - - 10 - - - -
23/05:00pm 21.0 ESE 5 7 1021.5 - 0.0 - - 10 - - - -
23/04:30pm 22.1 SE 6 9 1021.3 - 0.0 - - 10 - - - -
23/04:00pm 22.6 SE 7 11 1021.1 - 0.0 - - 10 - - - -
23/03:30pm 23.0 SE 8 11 1021.1 - 0.0 - - 10 - - - -
23/03:00pm 22.6 SE 8 10 1021.2 - 0.0 - Cloudy 10 - - - -
23/02:30pm 22.3 SE 8 12 1021.4 - 0.0 - - 10 - - - -
23/02:00pm 23.3 SSE 9 13 1021.5 - 0.0 - - 10 - - - -
23/01:30pm 23.4 SE 9 12 1021.7 - 0.0 - - 10 - - - -
23/01:00pm 24.0 SE 8 12 1021.8 - 0.0 - Partly cloudy 10 - - - -
23/12:30pm 23.4 S 7 10 1022.2 - 0.0 - Partly cloudy 10 - - - -
23/12:00pm 23.2 SE 8 11 1022.5 - 0.0 - Mostly clear 10 - - - -
23/11:30am 23.4 S 8 11 1023.0 - 0.0 - Partly cloudy 10 - - - -
23/11:00am 23.3 S 8 11 1023.3 - 0.0 - Partly cloudy 10 - - - -
23/10:30am 23.3 SW 7 9 1024.0 - 0.0 - - 10 - - - -
23/10:00am 22.3 SW 7 10 1024.5 - 0.0 - - 10 - - - -
23/09:30am 21.4 WSW 6 8 1024.5 - 0.0 - - 10 - - - -
23/09:00am 19.8 WSW 6 9 1024.7 - 0.0 - Cloudy 10 - - - -
23/08:30am 18.4 W 6 8 1024.5 - 0.0 - - 10 - - - -
23/08:00am 17.8 W 3 5 1024.3 - 0.0 - - 10 - - - -
23/07:30am 16.9 W 4 5 1024.0 - 0.0 - - 10 - - - -
23/07:00am 15.0 CALM 0 0 1023.9 - 0.0 - - 10 - - - -
23/06:30am 13.6 CALM 0 0 1023.6 - 0.0 - - 10 - - - -
23/06:00am 14.0 W 4 5 1023.4 - 0.0 - Mostly cloudy 10 - - - -
23/05:30am 14.0 CALM 0 0 1022.9 - 0.0 - - 10 - - - -
23/05:00am 14.0 ENE 3 5 1022.7 - 0.0 - - 10 - - - -
23/04:30am 14.6 CALM 0 0 1022.8 - 0.0 - - 10 - - - -
23/04:00am 13.7 CALM 0 0 1022.6 - 0.0 - - 10 - - - -
23/03:30am 13.5 CALM 0 0 1022.7 - 0.0 - - 10 - - - -
23/03:00am 13.3 CALM 0 0 1022.9 - 0.0 - Cloudy 10 - - - -
23/02:30am 13.5 CALM 0 0 1023.1 - 0.0 - - 10 - - - -
23/02:00am 13.3 CALM 0 0 1023.3 - 0.0 - - 10 - - - -
23/01:30am 13.5 CALM 0 0 1023.6 - 0.0 - - 10 - - - -
23/01:00am 13.9 CALM 0 0 1023.8 - 0.0 - - 10 - - - -
23/12:30am 13.9 CALM 0 0 1024.2 - 0.0 - - 10 - - - -
23/12:00am 14.2 CALM 0 0 1024.4 - 0.0 - - 10 - - - -
 
Date/Time
EST
Temp
°C
Wind Pressure Rain since
9am
mm
Weather Cloud Vis
km
Sea
Height
m
Swell
Dir  Spd
kts
Gust
kts
hPa Trend Height
m
Period
s
Dir
22/11:30pm 14.7 CALM 0 0 1024.5 - 0.0 - - 10 - - - -
22/11:00pm 15.1 CALM 0 0 1024.6 - 0.0 - - 10 - - - -
22/10:30pm 15.2 CALM 0 0 1024.7 - 0.0 - - 10 - - - -
22/10:00pm 15.2 CALM 0 0 1024.8 - 0.0 - - 10 - - - -
22/09:30pm 15.3 CALM 0 0 1024.9 - 0.0 - - 10 - - - -
22/09:00pm 15.4 W 3 4 1025.0 - 0.0 - Mostly clear 10 - - - -
22/08:30pm 15.5 W 3 4 1024.9 - 0.0 - - 10 - - - -
22/08:00pm 15.7 W 3 4 1024.9 - 0.0 - - 10 - - - -
22/07:30pm 16.2 WNW 1 3 1024.8 - 0.0 - - 10 - - - -
22/07:00pm 16.5 CALM 0 1 1024.4 - 0.0 - - 10 - - - -
22/06:30pm 17.4 CALM 0 0 1024.1 - 0.0 - - 10 - - - -
22/06:00pm 18.2 CALM 0 0 1024.1 - 0.0 - - 10 - - - -
22/05:30pm 19.6 E 4 6 1023.9 - 0.0 - - 10 - - - -
22/05:00pm 20.3 ESE 6 8 1023.8 - 0.0 - - 10 - - - -
22/04:30pm 21.9 ESE 7 10 1023.8 - 0.0 - Partly cloudy 10 - - - -
22/04:00pm 21.6 E 6 9 1023.6 - 0.0 - Partly cloudy 10 - - - -
22/03:30pm 22.5 ESE 9 13 1023.3 - 0.0 - Partly cloudy 10 - - - -
22/03:00pm 23.4 ESE 9 14 1023.2 - 0.0 - - 10 - - - -
22/02:30pm 23.4 E 8 13 1023.3 - 0.0 - Partly cloudy 10 - - - -
22/02:00pm 23.8 E 8 13 1023.5 - 0.0 - Partly cloudy 10 - - - -
22/01:30pm 23.2 ESE 8 13 1023.7 - 0.0 - Partly cloudy 10 - - - -
22/01:00pm 24.2 E 11 15 1023.8 - 0.0 - Partly cloudy 10 - - - -
22/12:30pm 24.2 E 11 17 1024.2 - 0.0 - Partly cloudy 10 - - - -
22/12:00pm 24.1 ESE 10 13 1024.9 - 0.0 - Mostly clear 10 - - - -
22/11:30am 24.4 ESE 9 16 1025.3 - 0.0 - Partly cloudy 10 - - - -
22/11:00am 23.4 SE 8 11 1025.9 - 0.0 - Partly cloudy 10 - - - -
22/10:30am 23.7 ESE 8 13 1026.0 - 0.0 - - 10 - - - -
22/10:00am 24.1 ESE 9 12 1026.2 - 0.0 - - 10 - - - -
22/09:30am 23.7 SE 8 12 1026.3 - 0.0 - Partly cloudy 10 - - - -
22/09:23am 23.2 S 7 12 1026.4 - 0.0 - Partly cloudy 10 - - - -
22/09:05am 21.8 W 6 11 1026.4 - 0.0 - Partly cloudy 5 - - - -
22/09:00am 21.6 W 6 11 1026.4 - 0.0 - Mostly clear 6 - - - -
22/08:30am 19.8 WSW 5 7 1026.5 - 0.0 - Partly cloudy 10 - - - -
22/08:00am 18.8 W 5 5 1026.3 - 0.0 - Partly cloudy 10 - - - -
22/07:30am 17.6 WNW 4 5 1026.1 - 0.0 - - 10 - - - -
22/07:00am 16.7 W 4 5 1025.8 - 0.0 - Partly cloudy 10 - - - -
22/06:30am 16.3 W 3 4 1025.7 - 0.0 - Partly cloudy 10 - - - -
22/06:00am 16.2 W 5 6 1025.4 - 0.0 - Mostly cloudy 10 - - - -
22/05:30am 16.7 W 5 6 1025.0 - 0.0 - Partly cloudy 10 - - - -
22/05:00am 16.6 W 4 5 1024.8 - 0.0 - Partly cloudy 10 - - - -
22/04:30am 16.4 W 4 6 1024.3 - 0.0 - Partly cloudy 10 - - - -
22/04:00am 16.8 W 7 8 1024.2 - 0.0 - Partly cloudy 10 - - - -
22/03:30am 16.9 W 6 7 1024.0 - 0.0 - Partly cloudy 10 - - - -
22/03:00am 20.0 ESE 5 8 1024.2 - 0.0 - Mostly cloudy 10 - - - -
22/02:30am 20.3 ESE 7 10 1024.3 - 0.0 - Partly cloudy 10 - - - -
22/02:00am 20.9 ESE 8 12 1024.3 - 0.0 - Partly cloudy 10 - - - -
22/01:30am 21.0 E 8 11 1024.4 - 0.0 - Partly cloudy 10 - - - -
22/01:00am 20.7 ESE 7 10 1024.6 - 0.0 - Partly cloudy 10 - - - -
22/12:30am 20.2 ESE 7 9 1025.0 - 0.0 - Partly cloudy 10 - - - -
22/12:00am 20.3 ESE 7 10 1025.1 - 0.0 - Partly cloudy 10 - - - -
 
Date/Time
EST
Temp
°C
Wind Pressure Rain since
9am
mm
Weather Cloud Vis
km
Sea
Height
m
Swell
Dir  Spd
kts
Gust
kts
hPa Trend Height
m
Period
s
Dir
21/11:30pm 20.3 ESE 7 12 1025.2 - 0.0 - Partly cloudy 10 - - - -
21/11:00pm 20.4 E 6 9 1025.5 - 0.0 - Partly cloudy 10 - - - -
21/10:30pm 20.1 ESE 6 9 1025.5 - 0.0 - Partly cloudy 10 - - - -
21/10:00pm 17.2 WSW 3 5 1025.8 - 0.0 - Partly cloudy 10 - - - -
21/09:30pm 17.2 W 5 6 1025.8 - 0.0 - Partly cloudy 10 - - - -
21/09:00pm 19.7 ESE 6 8 1025.9 - 0.0 - Partly cloudy 10 - - - -
21/08:30pm 19.5 ESE 6 9 1025.9 - 0.0 - Partly cloudy 10 - - - -
21/08:00pm 19.5 ESE 5 7 1025.9 - 0.0 - Partly cloudy 10 - - - -
21/07:30pm 20.0 ESE 7 10 1025.8 - 0.0 - Partly cloudy 10 - - - -
21/07:00pm 19.7 SE 5 7 1025.6 - 0.0 - Partly cloudy 10 - - - -
21/06:30pm 19.6 ESE 5 8 1025.4 - 0.0 - - 10 - - - -
21/06:00pm 19.8 ESE 7 9 1025.2 - 0.0 - Mostly clear 10 - - - -
21/05:30pm 19.8 ESE 7 9 1024.9 - 0.0 - - 10 - - - -
21/05:00pm 20.6 ESE 6 8 1025.0 - 0.0 - - 10 - - - -
21/04:30pm 21.4 ESE 7 10 1024.8 - 0.0 - - 10 - - - -
21/04:00pm 22.2 ESE 9 12 1024.5 - 0.0 - - 10 - - - -
21/03:30pm 22.9 ESE 9 13 1024.5 - 0.0 - - 10 - - - -
21/03:00pm 23.5 ESE 11 15 1024.7 - 0.0 - - 10 - - - -
21/02:30pm 23.8 ESE 11 15 1024.6 - 0.0 - Partly cloudy 10 - - - -
21/02:00pm 23.9 ESE 11 15 1024.7 - 0.0 - Cloudy 10 - - - -
21/01:30pm 24.0 E 11 15 1024.9 - 0.0 - Cloudy 10 - - - -
21/01:00pm 23.6 E 11 16 1025.1 - 0.0 - Partly cloudy 10 - - - -
21/12:30pm 23.8 ESE 10 14 1025.6 - 0.0 - Cloudy 10 - - - -
21/12:00pm 23.0 E 11 16 1026.0 - 0.0 - Cloudy 10 - - - -
21/11:30am 23.1 E 10 13 1026.5 - 0.0 - Cloudy 10 - - - -
21/11:00am 22.5 ESE 11 16 1026.8 - 0.0 - Partly cloudy 10 - - - -
21/10:30am 22.7 ESE 11 15 1027.1 - 0.0 - Partly cloudy 10 - - - -
21/10:00am 23.9 SE 6 13 1027.3 - 0.0 - Partly cloudy 10 - - - -
21/09:30am 20.6 SSW 3 6 1027.4 - 0.0 - Partly cloudy 10 - - - -
21/09:00am 19.9 SW 4 5 1027.3 - 0.2 - Cloudy 10 - - - -
21/08:30am 18.3 W 4 6 1027.2 - 0.2 - Partly cloudy 10 - - - -
21/08:00am 17.1 W 4 5 1027.1 - 0.2 - Partly cloudy 10 - - - -
21/07:30am 15.9 W 3 5 1027.1 - 0.2 - Partly cloudy 10 - - - -
21/07:00am 15.2 CALM 0 0 1026.8 - 0.2 - Partly cloudy 10 - - - -
21/06:30am 14.1 CALM 0 2 1026.5 - 0.2 - Partly cloudy 10 - - - -
21/06:00am 14.0 CALM 0 0 1026.2 - 0.2 - Partly cloudy 10 - - - -
21/05:30am 14.2 W 2 3 1025.7 - 0.2 - Partly cloudy 10 - - - -
21/05:00am 14.5 W 3 4 1025.5 - 0.2 - Partly cloudy 10 - - - -
21/04:30am 14.4 WSW 3 4 1025.4 - 0.2 - Partly cloudy 10 - - - -
21/04:00am 14.3 CALM 0 4 1025.4 - 0.2 - - 10 - - - -
21/03:30am 14.7 CALM 0 0 1025.3 - 0.2 - Partly cloudy 10 - - - -
21/03:00am 15.1 CALM 0 3 1025.3 - 0.2 - Partly cloudy 10 - - - -
21/02:30am 15.7 CALM 0 0 1025.4 - 0.2 - Partly cloudy 10 - - - -
21/02:00am 15.8 WSW 3 5 1025.8 - 0.2 - Partly cloudy 10 - - - -
21/01:30am 15.7 W 4 5 1026.0 - 0.2 - Partly cloudy 10 - - - -
21/01:00am 15.8 WNW 4 5 1026.4 - 0.2 - Partly cloudy 10 - - - -
21/12:30am 16.0 W 5 6 1026.6 - 0.2 - Partly cloudy 10 - - - -
21/12:00am 16.8 W 4 5 1026.5 - 0.2 - Mostly clear 10 - - - -
 
Date/Time
EST
Temp
°C
Wind Pressure Rain since
9am
mm
Weather Cloud Vis
km
Sea
Height
m
Swell
Dir  Spd
kts
Gust
kts
hPa Trend Height
m
Period
s
Dir
20/11:30pm 19.1 ESE 4 7 1026.7 - 0.2 - Partly cloudy 10 - - - -
20/11:00pm 19.4 S 4 5 1027.0 - 0.2 - Partly cloudy 10 - - - -
20/10:30pm 19.9 SE 8 11 1027.1 - 0.2 - Partly cloudy 10 - - - -
20/10:00pm 20.1 SE 9 12 1027.2 - 0.2 - Partly cloudy 10 - - - -
20/09:30pm 19.6 SSE 8 12 1027.4 - 0.2 - - 10 - - - -
20/09:00pm 19.5 SSE 8 10 1027.5 - 0.2 - Mostly clear 10 - - - -
20/08:30pm 19.7 SSE 9 15 1027.5 - 0.2 - Partly cloudy 10 - - - -

Other Formats:

Comma delimited format used in spreadsheet applications
http://www.bom.gov.au/fwo/IDN60701/IDN60701.94596.axf

JavaScript Object Notation format (JSON) in row-major order
http://www.bom.gov.au/fwo/IDN60701/IDN60701.94596.json